| time (UTC) | temp C | wind direction | speed KPH | gust KPH | rain 1hr cm | rain 24hr cm | rain mn cm | humidity % | barometer mb |
| 20260906113051 | 19 | 21 | 3.2 | 6.4 | 0.00 | 0.00 | 0.00 | 96 | 1016.1 |
| 20260906111503 | 19 | 18 | 1.6 | 8.0 | 0.00 | 0.00 | 0.00 | 95 | 1015.8 |
| 20260906110032 | 19 | 50 | 3.2 | 4.8 | 0.00 | 0.00 | 0.00 | 95 | 1015.6 |
| 20260906104549 | 19 | 28 | 1.6 | 4.8 | 0.00 | 0.00 | 0.00 | 95 | 1015.5 |
| 20260906103105 | 20 | 44 | 0.0 | 6.4 | 0.00 | 0.00 | 0.00 | 95 | 1015.3 |
| 20260906101528 | 20 | 32 | 1.6 | 6.4 | 0.00 | 0.00 | 0.00 | 95 | 1015.2 |
| 20260906100051 | 20 | 52 | 3.2 | 6.4 | 0.00 | 0.00 | 0.00 | 95 | 1015.1 |
| 20260906094507 | 20 | 61 | 1.6 | 6.4 | 0.00 | 0.00 | 0.00 | 94 | 1015.0 |
| 20260906093045 | 20 | 51 | 1.6 | 6.4 | 0.00 | 0.00 | 0.00 | 94 | 1014.9 |
| 20260906091546 | 20 | 78 | 1.6 | 4.8 | 0.00 | 0.00 | 0.00 | 94 | 1014.9 |
| 20260906090009 | 21 | 42 | 0.0 | 4.8 | 0.00 | 0.00 | 0.00 | 94 | 1014.8 |
| 20260906084549 | 21 | 39 | 0.0 | 4.8 | 0.00 | 0.00 | 0.00 | 93 | 1014.8 |
| 20260906083007 | 21 | 38 | 1.6 | 6.4 | 0.00 | 0.00 | 0.00 | 93 | 1014.8 |
| 20260906081532 | 21 | 38 | 4.8 | 11.3 | 0.00 | 0.00 | 0.00 | 93 | 1014.9 |
| 20260906080057 | 21 | 55 | 3.2 | 11.3 | 0.00 | 0.00 | 0.00 | 93 | 1014.9 |
| 20260906074519 | 22 | 19 | 3.2 | 9.7 | 0.00 | 0.00 | 0.00 | 92 | 1014.8 |
| 20260906073055 | 22 | 42 | 3.2 | 8.0 | 0.00 | 0.00 | 0.00 | 92 | 1015.0 |
| 20260906071526 | 22 | 43 | 4.8 | 9.7 | 0.00 | 0.00 | 0.00 | 92 | 1015.1 |
| 20260906070051 | 22 | 47 | 4.8 | 12.9 | 0.00 | 0.00 | 0.00 | 92 | 1015.1 |
| 20260906064513 | 22 | 44 | 4.8 | 11.3 | 0.00 | 0.00 | 0.00 | 93 | 1015.1 |
| 20260906063043 | 22 | 42 | 4.8 | 11.3 | 0.00 | 0.00 | 0.00 | 93 | 1015.1 |
| 20260906061507 | 22 | 20 | 3.2 | 8.0 | 0.00 | 0.00 | 0.00 | 93 | 1015.1 |
| 20260906060031 | 22 | 42 | 3.2 | 6.4 | 0.00 | 0.00 | 0.00 | 93 | 1015.0 |
| 20260906054605 | 22 | 43 | 0.0 | 6.4 | 0.00 | 0.00 | 0.00 | 93 | 1014.8 |
| 20260906053022 | 22 | 37 | 3.2 | 6.4 | 0.00 | 0.00 | 0.00 | 92 | 1014.8 |
| 20260906051547 | 22 | 28 | 3.2 | 6.4 | 0.00 | 0.00 | 0.00 | 92 | 1014.6 |
| 20260906050015 | 22 | 17 | 3.2 | 6.4 | 0.00 | 0.00 | 0.00 | 92 | 1014.5 |
| 20260906044544 | 21 | 57 | 3.2 | 8.0 | 0.00 | 0.00 | 0.00 | 92 | 1014.4 |
| 20260906043103 | 21 | 51 | 1.6 | 6.4 | 0.00 | 0.00 | 0.00 | 91 | 1014.3 |
| 20260906041524 | 21 | 16 | 1.6 | 4.8 | 0.00 | 0.00 | 0.00 | 90 | 1014.0 |
| 20260906040042 | 22 | 40 | 1.6 | 4.8 | 0.00 | 0.00 | 0.00 | 89 | 1014.0 |
| 20260906034559 | 22 | 29 | 3.2 | 8.0 | 0.00 | 0.00 | 0.00 | 89 | 1013.9 |
| 20260906034501 | 22 | 45 | 3.2 | 8.0 | 0.00 | 0.00 | 0.00 | 89 | 1014.0 |
| 20260906033012 | 22 | 37 | 6.4 | 11.3 | 0.00 | 0.00 | 0.00 | 89 | 1014.0 |
| 20260906031538 | 22 | 33 | 4.8 | 14.5 | 0.00 | 0.00 | 0.00 | 88 | 1014.0 |
| 20260906030108 | 22 | 44 | 8.0 | 19.3 | 0.00 | 0.00 | 0.00 | 88 | 1014.0 |
| 20260906024524 | 22 | 53 | 9.7 | 20.9 | 0.00 | 0.00 | 0.00 | 87 | 1014.2 |
| 20260906023053 | 22 | 25 | 11.3 | 22.5 | 0.00 | 0.00 | 0.00 | 86 | 1014.0 |
| 20260906021518 | 22 | 24 | 8.0 | 17.7 | 0.00 | 0.00 | 0.00 | 86 | 1014.0 |
| 20260906020052 | 22 | 355 | 11.3 | 19.3 | 0.00 | 0.00 | 0.00 | 87 | 1014.0 |
| 20260906014512 | 22 | 57 | 8.0 | 14.5 | 0.00 | 0.00 | 0.00 | 89 | 1013.8 |
| 20260906013034 | 23 | 44 | 6.4 | 12.9 | 0.00 | 0.00 | 0.00 | 88 | 1013.6 |
| 20260906011546 | 23 | 69 | 6.4 | 12.9 | 0.00 | 0.00 | 0.00 | 87 | 1013.6 |
| 20260906010003 | 23 | 34 | 4.8 | 9.7 | 0.00 | 0.00 | 0.00 | 87 | 1013.5 |
| 20260906004524 | 23 | 5 | 4.8 | 8.0 | 0.00 | 0.00 | 0.00 | 86 | 1013.2 |
| 20260906003044 | 24 | 44 | 3.2 | 8.0 | 0.00 | 0.00 | 0.00 | 84 | 1013.0 |
| 20260906001556 | 24 | 67 | 6.4 | 12.9 | 0.00 | 0.00 | 0.00 | 83 | 1012.7 |
| 20260906000002 | 25 | 70 | 6.4 | 12.9 | 0.00 | 0.00 | 0.00 | 82 | 1012.7 |
| 20260905234533 | 25 | 44 | 4.8 | 11.3 | 0.00 | 0.00 | 0.00 | 81 | 1012.8 |
| 20260905233042 | 26 | 54 | 11.3 | 20.9 | 0.00 | 0.00 | 0.00 | 79 | 1012.7 |
| 20260905231553 | 26 | 40 | 11.3 | 20.9 | 0.00 | 0.00 | 0.00 | 79 | 1012.6 |
| 20260905230130 | 26 | 51 | 12.9 | 22.5 | 0.00 | 0.00 | 0.00 | 77 | 1012.3 |
| 20260905224518 | 27 | 60 | 14.5 | 24.1 | 0.00 | 0.00 | 0.00 | 76 | 1012.2 |
| 20260905223036 | 27 | 51 | 14.5 | 24.1 | 0.00 | 0.00 | 0.00 | 75 | 1012.0 |
| 20260905221602 | 28 | 355 | 9.7 | 19.3 | 0.00 | 0.00 | 0.00 | 76 | 1012.0 |
| 20260905220026 | 28 | 65 | 9.7 | 20.9 | 0.00 | 0.00 | 0.00 | 76 | 1012.0 |
| 20260905214548 | 27 | 15 | 9.7 | 22.5 | 0.00 | 0.00 | 0.00 | 75 | 1011.9 |
| 20260905213004 | 28 | 63 | 11.3 | 24.1 | 0.00 | 0.00 | 0.00 | 73 | 1011.6 |
| 20260905211531 | 29 | 78 | 12.9 | 24.1 | 0.00 | 0.00 | 0.00 | 73 | 1011.5 |
| 20260905210052 | 29 | 59 | 11.3 | 24.1 | 0.00 | 0.00 | 0.00 | 72 | 1011.6 |
| 20260905204504 | 30 | 17 | 11.3 | 22.5 | 0.00 | 0.00 | 0.00 | 71 | 1011.5 |
| 20260905203034 | 30 | 71 | 11.3 | 22.5 | 0.00 | 0.00 | 0.00 | 71 | 1011.5 |
| 20260905201553 | 30 | 44 | 11.3 | 19.3 | 0.00 | 0.00 | 0.00 | 70 | 1011.5 |
| 20260905200021 | 31 | 351 | 11.3 | 17.7 | 0.00 | 0.00 | 0.00 | 69 | 1011.5 |
| 20260905194540 | 31 | 25 | 6.4 | 12.9 | 0.00 | 0.00 | 0.00 | 70 | 1011.5 |
| 20260905193110 | 30 | 13 | 9.7 | 16.1 | 0.00 | 0.00 | 0.00 | 71 | 1011.6 |
| 20260905191511 | 31 | 51 | 6.4 | 17.7 | 0.00 | 0.00 | 0.00 | 72 | 1011.6 |
| 20260905190034 | 30 | 32 | 8.0 | 14.5 | 0.00 | 0.00 | 0.00 | 74 | 1011.7 |
| 20260905184600 | 31 | 34 | 6.4 | 17.7 | 0.00 | 0.00 | 0.00 | 73 | 1011.8 |
| 20260905183007 | 31 | 39 | 4.8 | 11.3 | 0.00 | 0.00 | 0.00 | 73 | 1011.9 |
| 20260905181539 | 31 | 14 | 4.8 | 14.5 | 0.00 | 0.00 | 0.00 | 73 | 1012.0 |
| 20260905174528 | 31 | 44 | 6.4 | 14.5 | 0.00 | 0.00 | 0.00 | 73 | 1012.0 |
| 20260905173101 | 31 | 38 | 6.4 | 17.7 | 0.00 | 0.00 | 0.00 | 75 | 1012.0 |
| 20260905171533 | 31 | 24 | 6.4 | 11.3 | 0.00 | 0.00 | 0.00 | 75 | 1012.1 |
| 20260905170054 | 31 | 57 | 9.7 | 14.5 | 0.00 | 0.00 | 0.00 | 76 | 1012.2 |
| 20260905164517 | 31 | 5 | 8.0 | 14.5 | 0.00 | 0.00 | 0.00 | 75 | 1012.3 |
| 20260905163042 | 31 | 37 | 8.0 | 12.9 | 0.00 | 0.00 | 0.00 | 76 | 1012.2 |
| 20260905161502 | 31 | 14 | 4.8 | 11.3 | 0.00 | 0.00 | 0.00 | 77 | 1012.2 |
| 20260905160038 | 31 | 36 | 4.8 | 11.3 | 0.00 | 0.00 | 0.00 | 79 | 1012.1 |
| 20260905154502 | 31 | 73 | 4.8 | 9.7 | 0.00 | 0.00 | 0.00 | 78 | 1012.1 |
| 20260905153029 | 30 | 5 | 3.2 | 9.7 | 0.00 | 0.00 | 0.00 | 79 | 1012.0 |
| 20260905151552 | 30 | 347 | 3.2 | 9.7 | 0.00 | 0.00 | 0.00 | 79 | 1011.9 |
| 20260905150002 | 30 | 17 | 4.8 | 11.3 | 0.00 | 0.00 | 0.00 | 80 | 1011.9 |
| 20260905144533 | 29 | 31 | 4.8 | 9.7 | 0.00 | 0.00 | 0.00 | 81 | 1011.8 |
| 20260905143058 | 29 | 31 | 3.2 | 9.7 | 0.00 | 0.00 | 0.00 | 82 | 1011.7 |
| 20260905141524 | 28 | 45 | 0.0 | 8.0 | 0.00 | 0.00 | 0.00 | 85 | 1011.6 |
| 20260905140050 | 28 | 279 | 1.6 | 6.4 | 0.00 | 0.00 | 0.00 | 89 | 1011.7 |
| 20260905134508 | 27 | 279 | 0.0 | 4.8 | 0.00 | 0.00 | 0.00 | 91 | 1012.1 |
| 20260905133042 | 26 | 275 | 1.6 | 3.2 | 0.00 | 0.00 | 0.00 | 93 | 1011.9 |
| 20260905131552 | 26 | 254 | 1.6 | 6.4 | 0.00 | 0.00 | 0.00 | 94 | 1011.7 |
| 20260905130026 | 25 | 238 | 4.8 | 8.0 | 0.00 | 0.00 | 0.00 | 95 | 1011.4 |
| 20260905124544 | 24 | 221 | 3.2 | 4.8 | 0.00 | 0.00 | 0.00 | 96 | 1011.4 |
| 20260905123106 | 23 | 25 | 0.0 | 1.6 | 0.00 | 0.00 | 0.00 | 96 | 1011.5 |
| 20260905121533 | 23 | 24 | 0.0 | 0.0 | 0.00 | 0.00 | 0.00 | 97 | 1011.2 |
| 20260905120055 | 23 | 25 | 0.0 | 0.0 | 0.00 | 0.00 | 0.00 | 96 | 1011.2 |
| 20260905114520 | 23 | 24 | 0.0 | 0.0 | 0.00 | 0.00 | 0.00 | 96 | 1011.0 |